sensor_id;sensor_type;location;lat;lon;timestamp;temperature;humidity
42245;DHT22;27912;51.828;5.688;2022-08-25T00:01:57;21.90;99.90
42245;DHT22;27912;51.828;5.688;2022-08-25T00:04:26;21.90;99.90
42245;DHT22;27912;51.828;5.688;2022-08-25T00:06:53;21.90;99.90
42245;DHT22;27912;51.828;5.688;2022-08-25T00:09:22;21.80;99.90
42245;DHT22;27912;51.828;5.688;2022-08-25T00:11:48;21.80;99.90
42245;DHT22;27912;51.828;5.688;2022-08-25T00:14:18;21.90;99.90
42245;DHT22;27912;51.828;5.688;2022-08-25T00:16:44;21.90;99.90
42245;DHT22;27912;51.828;5.688;2022-08-25T00:19:16;21.90;99.90
42245;DHT22;27912;51.828;5.688;2022-08-25T00:21:42;21.80;99.90
42245;DHT22;27912;51.828;5.688;2022-08-25T00:24:09;21.80;99.90
42245;DHT22;27912;51.828;5.688;2022-08-25T00:26:39;21.80;99.90
42245;DHT22;27912;51.828;5.688;2022-08-25T00:29:04;21.80;99.90
42245;DHT22;27912;51.828;5.688;2022-08-25T00:31:30;21.80;99.90
42245;DHT22;27912;51.828;5.688;2022-08-25T00:33:56;21.70;99.90
42245;DHT22;27912;51.828;5.688;2022-08-25T00:36:21;21.70;99.90
42245;DHT22;27912;51.828;5.688;2022-08-25T00:38:47;21.60;99.90
42245;DHT22;27912;51.828;5.688;2022-08-25T00:41:19;21.60;99.90
42245;DHT22;27912;51.828;5.688;2022-08-25T00:46:13;21.60;99.90
42245;DHT22;27912;51.828;5.688;2022-08-25T00:48:41;21.50;99.90
42245;DHT22;27912;51.828;5.688;2022-08-25T00:51:09;21.50;99.90
42245;DHT22;27912;51.828;5.688;2022-08-25T00:53:36;21.40;99.90
42245;DHT22;27912;51.828;5.688;2022-08-25T00:56:03;21.40;99.90
42245;DHT22;27912;51.828;5.688;2022-08-25T00:58:31;21.30;99.90
42245;DHT22;27912;51.828;5.688;2022-08-25T01:00:57;21.30;99.90
42245;DHT22;27912;51.828;5.688;2022-08-25T01:03:25;21.30;99.90
42245;DHT22;27912;51.828;5.688;2022-08-25T01:05:51;21.20;99.90
42245;DHT22;27912;51.828;5.688;2022-08-25T01:08:18;21.20;99.90
42245;DHT22;27912;51.828;5.688;2022-08-25T01:10:48;21.10;99.90
42245;DHT22;27912;51.828;5.688;2022-08-25T01:13:19;21.00;99.90
42245;DHT22;27912;51.828;5.688;2022-08-25T01:15:47;21.00;99.90
42245;DHT22;27912;51.828;5.688;2022-08-25T01:18:13;21.00;99.90
42245;DHT22;27912;51.828;5.688;2022-08-25T01:20:39;20.90;99.90
42245;DHT22;27912;51.828;5.688;2022-08-25T01:23:05;20.80;99.90
42245;DHT22;27912;51.828;5.688;2022-08-25T01:28:18;20.70;99.90
42245;DHT22;27912;51.828;5.688;2022-08-25T01:30:44;20.70;99.90
42245;DHT22;27912;51.828;5.688;2022-08-25T01:33:11;20.60;99.90
42245;DHT22;27912;51.828;5.688;2022-08-25T01:35:37;20.60;99.90
42245;DHT22;27912;51.828;5.688;2022-08-25T01:38:04;20.60;99.90
42245;DHT22;27912;51.828;5.688;2022-08-25T01:40:31;20.60;99.90
42245;DHT22;27912;51.828;5.688;2022-08-25T01:43:29;20.60;99.90
42245;DHT22;27912;51.828;5.688;2022-08-25T01:45:55;20.60;99.90
42245;DHT22;27912;51.828;5.688;2022-08-25T01:48:22;20.50;99.90
42245;DHT22;27912;51.828;5.688;2022-08-25T01:50:47;20.50;99.90
42245;DHT22;27912;51.828;5.688;2022-08-25T01:53:28;20.40;99.90
42245;DHT22;27912;51.828;5.688;2022-08-25T01:55:53;20.40;99.90
42245;DHT22;27912;51.828;5.688;2022-08-25T01:58:32;20.40;99.90
42245;DHT22;27912;51.828;5.688;2022-08-25T02:01:00;20.30;99.90
42245;DHT22;27912;51.828;5.688;2022-08-25T02:03:26;20.30;99.90
42245;DHT22;27912;51.828;5.688;2022-08-25T02:05:52;20.30;99.90
42245;DHT22;27912;51.828;5.688;2022-08-25T02:08:19;20.30;99.90
42245;DHT22;27912;51.828;5.688;2022-08-25T02:10:46;20.20;99.90
42245;DHT22;27912;51.828;5.688;2022-08-25T02:13:12;20.20;99.90
42245;DHT22;27912;51.828;5.688;2022-08-25T02:15:46;20.20;99.90
42245;DHT22;27912;51.828;5.688;2022-08-25T02:18:12;20.20;99.90
42245;DHT22;27912;51.828;5.688;2022-08-25T02:20:38;20.10;99.90
42245;DHT22;27912;51.828;5.688;2022-08-25T02:23:04;20.10;99.90
42245;DHT22;27912;51.828;5.688;2022-08-25T02:25:31;20.00;99.90
42245;DHT22;27912;51.828;5.688;2022-08-25T02:27:56;20.10;99.90
42245;DHT22;27912;51.828;5.688;2022-08-25T02:30:23;20.00;99.90
42245;DHT22;27912;51.828;5.688;2022-08-25T02:32:49;20.00;99.90
42245;DHT22;27912;51.828;5.688;2022-08-25T02:35:15;20.00;99.90
42245;DHT22;27912;51.828;5.688;2022-08-25T02:37:41;20.00;99.90
42245;DHT22;27912;51.828;5.688;2022-08-25T02:40:07;19.90;99.90
42245;DHT22;27912;51.828;5.688;2022-08-25T02:42:33;20.00;99.90
42245;DHT22;27912;51.828;5.688;2022-08-25T02:44:58;20.00;99.90
42245;DHT22;27912;51.828;5.688;2022-08-25T02:47:24;19.90;99.90
42245;DHT22;27912;51.828;5.688;2022-08-25T02:49:50;19.90;99.90
42245;DHT22;27912;51.828;5.688;2022-08-25T02:52:16;20.00;99.90
42245;DHT22;27912;51.828;5.688;2022-08-25T02:54:42;19.90;99.90
42245;DHT22;27912;51.828;5.688;2022-08-25T02:57:08;19.90;99.90
42245;DHT22;27912;51.828;5.688;2022-08-25T02:59:36;19.90;99.90
42245;DHT22;27912;51.828;5.688;2022-08-25T03:02:02;19.90;99.90
42245;DHT22;27912;51.828;5.688;2022-08-25T03:04:28;19.90;99.90
42245;DHT22;27912;51.828;5.688;2022-08-25T03:06:54;19.90;99.90
42245;DHT22;27912;51.828;5.688;2022-08-25T03:09:20;19.90;99.90
42245;DHT22;27912;51.828;5.688;2022-08-25T03:11:46;19.90;99.90
42245;DHT22;27912;51.828;5.688;2022-08-25T03:14:12;19.90;99.90
42245;DHT22;27912;51.828;5.688;2022-08-25T03:16:37;19.80;99.90
42245;DHT22;27912;51.828;5.688;2022-08-25T03:19:04;19.80;99.90
42245;DHT22;27912;51.828;5.688;2022-08-25T03:21:30;19.80;99.90
42245;DHT22;27912;51.828;5.688;2022-08-25T03:23:58;19.80;99.90
42245;DHT22;27912;51.828;5.688;2022-08-25T03:26:24;19.70;99.90
42245;DHT22;27912;51.828;5.688;2022-08-25T03:29:09;19.70;99.90
42245;DHT22;27912;51.828;5.688;2022-08-25T03:31:35;19.70;99.90
42245;DHT22;27912;51.828;5.688;2022-08-25T03:34:01;19.70;99.90
42245;DHT22;27912;51.828;5.688;2022-08-25T03:36:27;19.70;99.90
42245;DHT22;27912;51.828;5.688;2022-08-25T03:38:53;19.70;99.90
42245;DHT22;27912;51.828;5.688;2022-08-25T03:41:27;19.70;99.90
42245;DHT22;27912;51.828;5.688;2022-08-25T03:43:54;19.70;99.90
42245;DHT22;27912;51.828;5.688;2022-08-25T03:46:31;19.70;99.90
42245;DHT22;27912;51.828;5.688;2022-08-25T03:48:57;19.80;99.90
42245;DHT22;27912;51.828;5.688;2022-08-25T03:51:35;19.80;99.90
42245;DHT22;27912;51.828;5.688;2022-08-25T03:54:03;19.90;99.90
42245;DHT22;27912;51.828;5.688;2022-08-25T03:56:29;19.90;99.90
42245;DHT22;27912;51.828;5.688;2022-08-25T03:58:55;20.00;99.90
42245;DHT22;27912;51.828;5.688;2022-08-25T04:01:22;20.10;99.90
42245;DHT22;27912;51.828;5.688;2022-08-25T04:03:48;20.10;99.90
42245;DHT22;27912;51.828;5.688;2022-08-25T04:06:15;20.20;99.90
42245;DHT22;27912;51.828;5.688;2022-08-25T04:08:41;20.20;99.90
42245;DHT22;27912;51.828;5.688;2022-08-25T04:11:16;20.30;99.80
42245;DHT22;27912;51.828;5.688;2022-08-25T04:13:42;20.30;99.60
42245;DHT22;27912;51.828;5.688;2022-08-25T04:16:15;20.30;99.30
42245;DHT22;27912;51.828;5.688;2022-08-25T04:18:41;20.40;99.00
42245;DHT22;27912;51.828;5.688;2022-08-25T04:21:08;20.40;98.70
42245;DHT22;27912;51.828;5.688;2022-08-25T04:23:35;20.40;98.40
42245;DHT22;27912;51.828;5.688;2022-08-25T04:26:06;20.50;98.00
42245;DHT22;27912;51.828;5.688;2022-08-25T04:28:32;20.50;97.70
42245;DHT22;27912;51.828;5.688;2022-08-25T04:30:57;20.50;97.50
42245;DHT22;27912;51.828;5.688;2022-08-25T04:33:23;20.60;97.30
42245;DHT22;27912;51.828;5.688;2022-08-25T04:35:57;20.70;97.00
42245;DHT22;27912;51.828;5.688;2022-08-25T04:38:25;20.70;96.80
42245;DHT22;27912;51.828;5.688;2022-08-25T04:40:59;20.70;96.60
42245;DHT22;27912;51.828;5.688;2022-08-25T04:43:25;20.80;96.40
42245;DHT22;27912;51.828;5.688;2022-08-25T04:45:50;20.80;96.20
42245;DHT22;27912;51.828;5.688;2022-08-25T04:48:17;20.80;96.10
42245;DHT22;27912;51.828;5.688;2022-08-25T04:50:42;20.80;96.10
42245;DHT22;27912;51.828;5.688;2022-08-25T04:53:09;20.80;96.00
42245;DHT22;27912;51.828;5.688;2022-08-25T04:55:40;20.80;95.80
42245;DHT22;27912;51.828;5.688;2022-08-25T04:58:06;20.80;95.70
42245;DHT22;27912;51.828;5.688;2022-08-25T05:00:34;20.80;95.50
42245;DHT22;27912;51.828;5.688;2022-08-25T05:03:00;20.80;95.50
42245;DHT22;27912;51.828;5.688;2022-08-25T05:05:25;20.90;95.80
42245;DHT22;27912;51.828;5.688;2022-08-25T05:07:51;20.90;95.80
42245;DHT22;27912;51.828;5.688;2022-08-25T05:10:17;20.90;95.60
42245;DHT22;27912;51.828;5.688;2022-08-25T05:12:44;20.80;95.70
42245;DHT22;27912;51.828;5.688;2022-08-25T05:15:10;20.90;95.90
42245;DHT22;27912;51.828;5.688;2022-08-25T05:17:55;20.80;95.70
42245;DHT22;27912;51.828;5.688;2022-08-25T05:20:20;20.80;95.70
42245;DHT22;27912;51.828;5.688;2022-08-25T05:22:46;20.80;95.90
42245;DHT22;27912;51.828;5.688;2022-08-25T05:25:12;20.80;95.90
42245;DHT22;27912;51.828;5.688;2022-08-25T05:27:39;20.70;96.00
42245;DHT22;27912;51.828;5.688;2022-08-25T05:30:06;20.70;96.30
42245;DHT22;27912;51.828;5.688;2022-08-25T05:32:31;20.70;96.30
42245;DHT22;27912;51.828;5.688;2022-08-25T05:34:57;20.70;96.70
42245;DHT22;27912;51.828;5.688;2022-08-25T05:37:22;20.70;96.90
42245;DHT22;27912;51.828;5.688;2022-08-25T05:39:48;20.70;97.10
42245;DHT22;27912;51.828;5.688;2022-08-25T05:42:13;20.70;97.20
42245;DHT22;27912;51.828;5.688;2022-08-25T05:44:39;20.80;97.30
42245;DHT22;27912;51.828;5.688;2022-08-25T05:47:05;20.90;97.40
42245;DHT22;27912;51.828;5.688;2022-08-25T05:49:31;21.00;97.40
42245;DHT22;27912;51.828;5.688;2022-08-25T05:51:57;21.10;97.10
42245;DHT22;27912;51.828;5.688;2022-08-25T05:54:22;21.20;97.10
42245;DHT22;27912;51.828;5.688;2022-08-25T05:56:48;21.40;96.90
42245;DHT22;27912;51.828;5.688;2022-08-25T05:59:14;21.50;96.90
42245;DHT22;27912;51.828;5.688;2022-08-25T06:01:39;21.50;96.70
42245;DHT22;27912;51.828;5.688;2022-08-25T06:04:23;21.60;96.40
42245;DHT22;27912;51.828;5.688;2022-08-25T06:06:49;21.60;96.00
42245;DHT22;27912;51.828;5.688;2022-08-25T06:09:19;21.70;95.80
42245;DHT22;27912;51.828;5.688;2022-08-25T06:11:46;21.80;95.60
42245;DHT22;27912;51.828;5.688;2022-08-25T06:14:12;22.00;95.60
42245;DHT22;27912;51.828;5.688;2022-08-25T06:16:38;22.10;95.20
42245;DHT22;27912;51.828;5.688;2022-08-25T06:19:05;22.20;94.80
42245;DHT22;27912;51.828;5.688;2022-08-25T06:21:31;22.40;94.70
42245;DHT22;27912;51.828;5.688;2022-08-25T06:23:57;22.50;94.30
42245;DHT22;27912;51.828;5.688;2022-08-25T06:26:22;22.70;94.10
42245;DHT22;27912;51.828;5.688;2022-08-25T06:28:49;22.90;93.80
42245;DHT22;27912;51.828;5.688;2022-08-25T06:31:15;23.00;93.50
42245;DHT22;27912;51.828;5.688;2022-08-25T06:33:42;23.10;93.30
42245;DHT22;27912;51.828;5.688;2022-08-25T06:36:08;23.20;93.00
42245;DHT22;27912;51.828;5.688;2022-08-25T06:38:34;23.30;92.70
42245;DHT22;27912;51.828;5.688;2022-08-25T06:41:04;23.50;92.40
42245;DHT22;27912;51.828;5.688;2022-08-25T06:43:31;23.50;92.10
42245;DHT22;27912;51.828;5.688;2022-08-25T06:46:06;23.60;91.90
42245;DHT22;27912;51.828;5.688;2022-08-25T06:48:32;23.80;91.70
42245;DHT22;27912;51.828;5.688;2022-08-25T06:50:58;23.90;91.40
42245;DHT22;27912;51.828;5.688;2022-08-25T06:53:24;24.00;91.10
42245;DHT22;27912;51.828;5.688;2022-08-25T06:55:56;24.10;90.80
42245;DHT22;27912;51.828;5.688;2022-08-25T06:58:22;24.20;90.50
42245;DHT22;27912;51.828;5.688;2022-08-25T07:00:48;24.30;90.60
42245;DHT22;27912;51.828;5.688;2022-08-25T07:03:14;24.40;90.20
42245;DHT22;27912;51.828;5.688;2022-08-25T07:05:39;24.40;89.90
42245;DHT22;27912;51.828;5.688;2022-08-25T07:08:05;24.50;89.40
42245;DHT22;27912;51.828;5.688;2022-08-25T07:10:31;24.70;88.80
42245;DHT22;27912;51.828;5.688;2022-08-25T07:12:56;24.70;88.00
42245;DHT22;27912;51.828;5.688;2022-08-25T07:15:22;24.80;87.70
42245;DHT22;27912;51.828;5.688;2022-08-25T07:17:48;24.90;87.60
42245;DHT22;27912;51.828;5.688;2022-08-25T07:20:15;25.10;87.00
42245;DHT22;27912;51.828;5.688;2022-08-25T07:22:41;25.20;86.30
42245;DHT22;27912;51.828;5.688;2022-08-25T07:25:07;25.20;85.80
42245;DHT22;27912;51.828;5.688;2022-08-25T07:27:33;25.20;85.50
42245;DHT22;27912;51.828;5.688;2022-08-25T07:29:58;25.30;85.20
42245;DHT22;27912;51.828;5.688;2022-08-25T07:32:24;25.30;85.20
42245;DHT22;27912;51.828;5.688;2022-08-25T07:34:50;25.20;85.30
42245;DHT22;27912;51.828;5.688;2022-08-25T07:37:37;25.30;85.00
42245;DHT22;27912;51.828;5.688;2022-08-25T07:40:04;25.30;85.10
42245;DHT22;27912;51.828;5.688;2022-08-25T07:42:30;25.50;85.00
42245;DHT22;27912;51.828;5.688;2022-08-25T07:44:55;25.50;84.60
42245;DHT22;27912;51.828;5.688;2022-08-25T07:47:21;25.70;84.20
42245;DHT22;27912;51.828;5.688;2022-08-25T07:49:46;25.80;83.50
42245;DHT22;27912;51.828;5.688;2022-08-25T07:52:12;25.80;83.10
42245;DHT22;27912;51.828;5.688;2022-08-25T07:54:37;25.80;82.90
42245;DHT22;27912;51.828;5.688;2022-08-25T07:57:04;26.00;82.80
42245;DHT22;27912;51.828;5.688;2022-08-25T07:59:30;26.00;82.70
42245;DHT22;27912;51.828;5.688;2022-08-25T08:01:55;26.10;82.40
42245;DHT22;27912;51.828;5.688;2022-08-25T08:04:21;26.20;81.90
42245;DHT22;27912;51.828;5.688;2022-08-25T08:06:47;26.30;81.50
42245;DHT22;27912;51.828;5.688;2022-08-25T08:09:12;26.50;81.50
42245;DHT22;27912;51.828;5.688;2022-08-25T08:11:38;26.60;80.20
42245;DHT22;27912;51.828;5.688;2022-08-25T08:14:09;26.60;80.40
42245;DHT22;27912;51.828;5.688;2022-08-25T08:16:35;26.80;79.80
42245;DHT22;27912;51.828;5.688;2022-08-25T08:19:01;26.90;79.40
42245;DHT22;27912;51.828;5.688;2022-08-25T08:21:30;27.00;79.10
42245;DHT22;27912;51.828;5.688;2022-08-25T08:23:57;27.10;78.80
42245;DHT22;27912;51.828;5.688;2022-08-25T08:26:24;27.30;78.30
42245;DHT22;27912;51.828;5.688;2022-08-25T08:28:50;27.40;77.50
42245;DHT22;27912;51.828;5.688;2022-08-25T08:31:17;27.40;76.30
42245;DHT22;27912;51.828;5.688;2022-08-25T08:33:45;27.50;76.00
42245;DHT22;27912;51.828;5.688;2022-08-25T08:36:11;27.50;76.10
42245;DHT22;27912;51.828;5.688;2022-08-25T08:38:41;27.60;75.50
42245;DHT22;27912;51.828;5.688;2022-08-25T08:56:00;28.10;73.40
42245;DHT22;27912;51.828;5.688;2022-08-25T08:58:44;28.30;73.00
42245;DHT22;27912;51.828;5.688;2022-08-25T09:01:15;28.40;72.80
42245;DHT22;27912;51.828;5.688;2022-08-25T09:03:46;28.40;72.60
42245;DHT22;27912;51.828;5.688;2022-08-25T09:06:19;28.50;72.20
42245;DHT22;27912;51.828;5.688;2022-08-25T09:08:46;28.70;72.10
42245;DHT22;27912;51.828;5.688;2022-08-25T09:11:45;28.80;71.20
42245;DHT22;27912;51.828;5.688;2022-08-25T09:14:35;28.90;70.40
42245;DHT22;27912;51.828;5.688;2022-08-25T09:26:05;29.40;67.80
42245;DHT22;27912;51.828;5.688;2022-08-25T09:28:49;29.50;68.30
42245;DHT22;27912;51.828;5.688;2022-08-25T09:31:25;29.70;67.20
42245;DHT22;27912;51.828;5.688;2022-08-25T09:33:56;29.70;67.30
42245;DHT22;27912;51.828;5.688;2022-08-25T09:36:23;29.70;66.80
42245;DHT22;27912;51.828;5.688;2022-08-25T09:38:49;29.90;67.10
42245;DHT22;27912;51.828;5.688;2022-08-25T09:41:17;30.00;67.10
42245;DHT22;27912;51.828;5.688;2022-08-25T09:43:52;30.00;66.60
42245;DHT22;27912;51.828;5.688;2022-08-25T09:46:26;30.20;66.90
42245;DHT22;27912;51.828;5.688;2022-08-25T09:48:57;30.20;66.10
42245;DHT22;27912;51.828;5.688;2022-08-25T09:54:17;30.40;66.00
42245;DHT22;27912;51.828;5.688;2022-08-25T09:56:57;30.40;65.30
42245;DHT22;27912;51.828;5.688;2022-08-25T09:59:27;30.40;65.40
42245;DHT22;27912;51.828;5.688;2022-08-25T10:01:58;30.50;65.30
42245;DHT22;27912;51.828;5.688;2022-08-25T10:04:36;30.50;65.10
42245;DHT22;27912;51.828;5.688;2022-08-25T10:07:06;30.60;64.40
42245;DHT22;27912;51.828;5.688;2022-08-25T10:09:57;30.60;64.00
42245;DHT22;27912;51.828;5.688;2022-08-25T10:14:57;30.60;62.90
42245;DHT22;27912;51.828;5.688;2022-08-25T10:17:25;30.70;62.60
42245;DHT22;27912;51.828;5.688;2022-08-25T10:19:53;30.80;62.80
42245;DHT22;27912;51.828;5.688;2022-08-25T10:22:22;30.80;62.20
42245;DHT22;27912;51.828;5.688;2022-08-25T10:24:50;30.90;61.10
42245;DHT22;27912;51.828;5.688;2022-08-25T10:35:08;31.50;57.90
42245;DHT22;27912;51.828;5.688;2022-08-25T10:40:27;31.70;56.30
42245;DHT22;27912;51.828;5.688;2022-08-25T10:43:06;31.80;56.50
42245;DHT22;27912;51.828;5.688;2022-08-25T10:45:44;31.80;56.50
42245;DHT22;27912;51.828;5.688;2022-08-25T10:48:43;31.90;55.40
42245;DHT22;27912;51.828;5.688;2022-08-25T10:54:24;32.10;54.30
42245;DHT22;27912;51.828;5.688;2022-08-25T11:00:10;32.20;53.60
42245;DHT22;27912;51.828;5.688;2022-08-25T11:05:41;32.20;53.10
42245;DHT22;27912;51.828;5.688;2022-08-25T11:14:17;32.40;52.10
42245;DHT22;27912;51.828;5.688;2022-08-25T11:16:51;32.40;52.30
42245;DHT22;27912;51.828;5.688;2022-08-25T11:27:14;32.70;51.90
42245;DHT22;27912;51.828;5.688;2022-08-25T11:29:48;32.80;52.40
42245;DHT22;27912;51.828;5.688;2022-08-25T11:32:18;33.00;51.90
42245;DHT22;27912;51.828;5.688;2022-08-25T11:34:45;33.00;51.00
42245;DHT22;27912;51.828;5.688;2022-08-25T11:37:22;33.00;51.10
42245;DHT22;27912;51.828;5.688;2022-08-25T11:42:53;33.00;49.80
42245;DHT22;27912;51.828;5.688;2022-08-25T11:50:36;33.30;51.40
42245;DHT22;27912;51.828;5.688;2022-08-25T11:53:37;33.40;50.40
42245;DHT22;27912;51.828;5.688;2022-08-25T11:56:07;33.50;50.30
42245;DHT22;27912;51.828;5.688;2022-08-25T11:58:41;33.40;49.20
42245;DHT22;27912;51.828;5.688;2022-08-25T12:12:31;32.80;49.90
42245;DHT22;27912;51.828;5.688;2022-08-25T12:17:44;32.70;50.00
42245;DHT22;27912;51.828;5.688;2022-08-25T12:20:10;32.60;50.20
42245;DHT22;27912;51.828;5.688;2022-08-25T12:25:18;32.60;50.00
42245;DHT22;27912;51.828;5.688;2022-08-25T12:30:59;32.70;49.80
42245;DHT22;27912;51.828;5.688;2022-08-25T12:33:39;32.90;49.50
42245;DHT22;27912;51.828;5.688;2022-08-25T12:36:08;32.90;49.20
42245;DHT22;27912;51.828;5.688;2022-08-25T12:38:47;32.90;49.50
42245;DHT22;27912;51.828;5.688;2022-08-25T12:41:22;33.00;49.50
42245;DHT22;27912;51.828;5.688;2022-08-25T12:43:52;33.30;49.10
42245;DHT22;27912;51.828;5.688;2022-08-25T12:57:22;33.90;48.50
42245;DHT22;27912;51.828;5.688;2022-08-25T12:59:51;34.10;48.10
42245;DHT22;27912;51.828;5.688;2022-08-25T13:08:11;34.40;46.80
42245;DHT22;27912;51.828;5.688;2022-08-25T13:11:08;34.50;46.60
42245;DHT22;27912;51.828;5.688;2022-08-25T13:13:56;34.60;46.20
42245;DHT22;27912;51.828;5.688;2022-08-25T13:16:27;34.50;45.90
42245;DHT22;27912;51.828;5.688;2022-08-25T13:18:54;34.50;46.60
42245;DHT22;27912;51.828;5.688;2022-08-25T13:21:32;34.60;45.70
42245;DHT22;27912;51.828;5.688;2022-08-25T13:23:59;34.50;45.30
42245;DHT22;27912;51.828;5.688;2022-08-25T13:26:29;34.40;45.50
42245;DHT22;27912;51.828;5.688;2022-08-25T13:29:03;34.30;45.50
42245;DHT22;27912;51.828;5.688;2022-08-25T13:31:38;34.50;45.50
42245;DHT22;27912;51.828;5.688;2022-08-25T13:34:18;34.50;45.50
42245;DHT22;27912;51.828;5.688;2022-08-25T13:36:47;34.60;45.50
42245;DHT22;27912;51.828;5.688;2022-08-25T13:39:32;34.50;45.50
42245;DHT22;27912;51.828;5.688;2022-08-25T13:41:59;34.50;45.30
42245;DHT22;27912;51.828;5.688;2022-08-25T13:44:28;34.50;45.20
42245;DHT22;27912;51.828;5.688;2022-08-25T13:47:09;34.60;45.10
42245;DHT22;27912;51.828;5.688;2022-08-25T13:49:35;34.50;45.20
42245;DHT22;27912;51.828;5.688;2022-08-25T13:52:02;34.50;45.20
42245;DHT22;27912;51.828;5.688;2022-08-25T13:54:36;34.50;44.90
42245;DHT22;27912;51.828;5.688;2022-08-25T13:57:26;34.40;45.00
42245;DHT22;27912;51.828;5.688;2022-08-25T13:59:56;34.40;44.80
42245;DHT22;27912;51.828;5.688;2022-08-25T14:02:46;34.40;44.90
42245;DHT22;27912;51.828;5.688;2022-08-25T14:05:14;34.50;45.00
42245;DHT22;27912;51.828;5.688;2022-08-25T14:07:55;34.50;45.20
42245;DHT22;27912;51.828;5.688;2022-08-25T14:10:42;34.50;44.60
42245;DHT22;27912;51.828;5.688;2022-08-25T14:15:34;34.50;44.20
42245;DHT22;27912;51.828;5.688;2022-08-25T14:20:27;34.40;44.40
42245;DHT22;27912;51.828;5.688;2022-08-25T14:22:56;34.60;44.20
42245;DHT22;27912;51.828;5.688;2022-08-25T14:25:24;34.70;44.80
42245;DHT22;27912;51.828;5.688;2022-08-25T14:27:57;34.80;44.30
42245;DHT22;27912;51.828;5.688;2022-08-25T14:30:23;34.90;44.50
42245;DHT22;27912;51.828;5.688;2022-08-25T14:32:49;34.90;43.90
42245;DHT22;27912;51.828;5.688;2022-08-25T14:35:16;35.00;44.30
42245;DHT22;27912;51.828;5.688;2022-08-25T14:37:42;35.00;44.30
42245;DHT22;27912;51.828;5.688;2022-08-25T14:40:09;35.10;44.00
42245;DHT22;27912;51.828;5.688;2022-08-25T14:42:36;35.00;43.70
42245;DHT22;27912;51.828;5.688;2022-08-25T14:45:02;35.00;44.20
42245;DHT22;27912;51.828;5.688;2022-08-25T14:47:28;35.10;43.80
42245;DHT22;27912;51.828;5.688;2022-08-25T14:49:56;35.00;43.80
42245;DHT22;27912;51.828;5.688;2022-08-25T14:52:26;35.10;44.40
42245;DHT22;27912;51.828;5.688;2022-08-25T14:54:53;35.20;43.70
42245;DHT22;27912;51.828;5.688;2022-08-25T14:57:18;35.10;43.70
42245;DHT22;27912;51.828;5.688;2022-08-25T14:59:45;35.00;43.20
42245;DHT22;27912;51.828;5.688;2022-08-25T15:02:12;34.90;43.60
42245;DHT22;27912;51.828;5.688;2022-08-25T15:05:02;34.90;43.30
42245;DHT22;27912;51.828;5.688;2022-08-25T15:07:31;34.80;43.40
42245;DHT22;27912;51.828;5.688;2022-08-25T15:10:16;35.00;43.30
42245;DHT22;27912;51.828;5.688;2022-08-25T15:12:42;35.10;43.30
42245;DHT22;27912;51.828;5.688;2022-08-25T15:15:08;35.20;43.30
42245;DHT22;27912;51.828;5.688;2022-08-25T15:17:34;35.30;43.70
42245;DHT22;27912;51.828;5.688;2022-08-25T15:20:00;35.40;43.10
42245;DHT22;27912;51.828;5.688;2022-08-25T15:22:26;35.30;43.00
42245;DHT22;27912;51.828;5.688;2022-08-25T15:24:51;35.10;42.80
42245;DHT22;27912;51.828;5.688;2022-08-25T15:27:19;35.00;43.10
42245;DHT22;27912;51.828;5.688;2022-08-25T15:29:47;35.10;43.50
42245;DHT22;27912;51.828;5.688;2022-08-25T15:32:12;35.10;43.60
42245;DHT22;27912;51.828;5.688;2022-08-25T15:34:39;35.10;43.20
42245;DHT22;27912;51.828;5.688;2022-08-25T15:37:10;35.10;43.20
42245;DHT22;27912;51.828;5.688;2022-08-25T15:39:37;35.20;43.10
42245;DHT22;27912;51.828;5.688;2022-08-25T15:42:03;35.20;43.10
42245;DHT22;27912;51.828;5.688;2022-08-25T15:44:29;35.10;42.90
42245;DHT22;27912;51.828;5.688;2022-08-25T15:46:56;35.10;43.20
42245;DHT22;27912;51.828;5.688;2022-08-25T15:49:22;35.00;42.90
42245;DHT22;27912;51.828;5.688;2022-08-25T15:51:48;34.90;43.10
42245;DHT22;27912;51.828;5.688;2022-08-25T15:54:13;34.80;43.30
42245;DHT22;27912;51.828;5.688;2022-08-25T15:56:39;34.80;43.80
42245;DHT22;27912;51.828;5.688;2022-08-25T15:59:05;34.80;44.10
42245;DHT22;27912;51.828;5.688;2022-08-25T16:01:31;34.70;43.80
42245;DHT22;27912;51.828;5.688;2022-08-25T16:03:57;34.60;43.80
42245;DHT22;27912;51.828;5.688;2022-08-25T16:06:26;34.40;43.50
42245;DHT22;27912;51.828;5.688;2022-08-25T16:08:51;34.20;43.80
42245;DHT22;27912;51.828;5.688;2022-08-25T16:11:20;34.10;44.20
42245;DHT22;27912;51.828;5.688;2022-08-25T16:13:46;33.90;44.00
42245;DHT22;27912;51.828;5.688;2022-08-25T16:16:13;33.70;44.10
42245;DHT22;27912;51.828;5.688;2022-08-25T16:18:40;33.60;45.20
42245;DHT22;27912;51.828;5.688;2022-08-25T16:21:11;33.50;45.30
42245;DHT22;27912;51.828;5.688;2022-08-25T16:23:38;33.40;45.60
42245;DHT22;27912;51.828;5.688;2022-08-25T16:26:06;33.30;45.60
42245;DHT22;27912;51.828;5.688;2022-08-25T16:28:34;33.10;45.40
42245;DHT22;27912;51.828;5.688;2022-08-25T16:30:59;33.00;45.50
42245;DHT22;27912;51.828;5.688;2022-08-25T16:33:25;32.80;45.60
42245;DHT22;27912;51.828;5.688;2022-08-25T16:35:50;32.70;45.80
42245;DHT22;27912;51.828;5.688;2022-08-25T16:38:16;32.60;45.80
42245;DHT22;27912;51.828;5.688;2022-08-25T16:40:43;32.60;46.00
42245;DHT22;27912;51.828;5.688;2022-08-25T16:43:09;32.40;46.10
42245;DHT22;27912;51.828;5.688;2022-08-25T16:45:35;32.40;46.10
42245;DHT22;27912;51.828;5.688;2022-08-25T16:48:01;32.30;46.10
42245;DHT22;27912;51.828;5.688;2022-08-25T16:50:27;32.20;46.00
42245;DHT22;27912;51.828;5.688;2022-08-25T16:52:56;32.10;46.40
42245;DHT22;27912;51.828;5.688;2022-08-25T16:55:40;32.00;47.10
42245;DHT22;27912;51.828;5.688;2022-08-25T16:58:06;31.90;47.70
42245;DHT22;27912;51.828;5.688;2022-08-25T17:00:35;31.90;48.10
42245;DHT22;27912;51.828;5.688;2022-08-25T17:03:02;31.80;48.50
42245;DHT22;27912;51.828;5.688;2022-08-25T17:05:30;31.70;48.70
42245;DHT22;27912;51.828;5.688;2022-08-25T17:07:59;31.60;49.30
42245;DHT22;27912;51.828;5.688;2022-08-25T17:10:44;31.50;50.10
42245;DHT22;27912;51.828;5.688;2022-08-25T17:13:10;31.30;50.60
42245;DHT22;27912;51.828;5.688;2022-08-25T17:15:42;31.20;51.30
42245;DHT22;27912;51.828;5.688;2022-08-25T17:18:08;31.10;51.30
42245;DHT22;27912;51.828;5.688;2022-08-25T17:20:34;31.00;51.80
42245;DHT22;27912;51.828;5.688;2022-08-25T17:23:00;30.90;51.80
42245;DHT22;27912;51.828;5.688;2022-08-25T17:25:26;30.80;52.20
42245;DHT22;27912;51.828;5.688;2022-08-25T17:27:52;30.70;52.50
42245;DHT22;27912;51.828;5.688;2022-08-25T17:30:17;30.60;52.90
42245;DHT22;27912;51.828;5.688;2022-08-25T17:32:43;30.50;52.80
42245;DHT22;27912;51.828;5.688;2022-08-25T17:35:09;30.40;53.00
42245;DHT22;27912;51.828;5.688;2022-08-25T17:37:35;30.30;53.40
42245;DHT22;27912;51.828;5.688;2022-08-25T17:40:04;30.10;53.90